Cape Hatteras Naval Facility, North Carolina
Current Conditions -  °F | °C
As of 3:51 AM on Sunday 26 Oct 2014 (Local Time) from KHSE Reporting Station
Clear Clear  
Wind Chill: 16°   Ceiling: Unl
Heat Index: 16°   Visibility: 10mi
Dew Point: 11°   Wind: 10mph
Humidity: 70%   Direction: 260°W
Pressure: 29.77"   Gusts: 17mph
Location:  35.2677°N, 75.5426°W
Report Text: KHSE 260751Z AUTO 26009G15KT 10SM CLR 16/11 A2977 RMK AO2 SLP081 T01610106 TSNO
Loading
Personal Weather Stations






























Interactive Weather Map
Tropical Storm Tracking
New forecast layout! Learn more

10-Day Weather Forecast

Advertisements
Track Severe Weather on mobile